sensor_id;sensor_type;location;lat;lon;timestamp;temperature;humidity
1021;DHT22;499;42.648;23.270;2023-08-08T00:01:07;16.30;95.30
1021;DHT22;499;42.648;23.270;2023-08-08T00:03:35;16.20;95.10
1021;DHT22;499;42.648;23.270;2023-08-08T00:06:02;16.10;94.10
1021;DHT22;499;42.648;23.270;2023-08-08T00:08:30;15.90;96.70
1021;DHT22;499;42.648;23.270;2023-08-08T00:10:57;15.80;98.20
1021;DHT22;499;42.648;23.270;2023-08-08T00:13:24;15.50;93.10
1021;DHT22;499;42.648;23.270;2023-08-08T00:15:51;15.30;94.40
1021;DHT22;499;42.648;23.270;2023-08-08T00:18:18;15.30;96.00
1021;DHT22;499;42.648;23.270;2023-08-08T00:20:45;15.20;93.90
1021;DHT22;499;42.648;23.270;2023-08-08T00:23:12;14.90;87.80
1021;DHT22;499;42.648;23.270;2023-08-08T00:25:41;14.80;89.60
1021;DHT22;499;42.648;23.270;2023-08-08T00:28:08;14.80;90.00
1021;DHT22;499;42.648;23.270;2023-08-08T00:30:35;14.70;87.00
1021;DHT22;499;42.648;23.270;2023-08-08T00:33:02;14.60;86.90
1021;DHT22;499;42.648;23.270;2023-08-08T00:35:28;14.60;87.70
1021;DHT22;499;42.648;23.270;2023-08-08T00:37:55;14.50;85.80
1021;DHT22;499;42.648;23.270;2023-08-08T00:40:22;14.50;88.80
1021;DHT22;499;42.648;23.270;2023-08-08T00:42:50;14.50;90.10
1021;DHT22;499;42.648;23.270;2023-08-08T00:45:17;14.50;86.90
1021;DHT22;499;42.648;23.270;2023-08-08T00:47:45;14.50;86.80
1021;DHT22;499;42.648;23.270;2023-08-08T00:50:13;14.50;86.30
1021;DHT22;499;42.648;23.270;2023-08-08T00:52:41;14.50;82.80
1021;DHT22;499;42.648;23.270;2023-08-08T00:55:09;14.40;83.30
1021;DHT22;499;42.648;23.270;2023-08-08T00:57:36;14.50;85.00
1021;DHT22;499;42.648;23.270;2023-08-08T01:00:07;14.40;80.30
1021;DHT22;499;42.648;23.270;2023-08-08T01:02:35;14.40;81.00
1021;DHT22;499;42.648;23.270;2023-08-08T01:05:04;14.30;83.60
1021;DHT22;499;42.648;23.270;2023-08-08T01:07:38;14.40;85.00
1021;DHT22;499;42.648;23.270;2023-08-08T01:10:09;14.50;84.80
1021;DHT22;499;42.648;23.270;2023-08-08T01:12:39;14.50;84.60
1021;DHT22;499;42.648;23.270;2023-08-08T01:15:09;14.40;82.40
1021;DHT22;499;42.648;23.270;2023-08-08T01:17:37;14.50;83.40
1021;DHT22;499;42.648;23.270;2023-08-08T01:20:06;14.40;83.20
1021;DHT22;499;42.648;23.270;2023-08-08T01:22:37;14.50;83.10
1021;DHT22;499;42.648;23.270;2023-08-08T01:25:08;14.50;83.40
1021;DHT22;499;42.648;23.270;2023-08-08T01:27:36;14.50;79.60
1021;DHT22;499;42.648;23.270;2023-08-08T01:30:06;14.50;82.20
1021;DHT22;499;42.648;23.270;2023-08-08T01:32:33;14.50;79.10
1021;DHT22;499;42.648;23.270;2023-08-08T01:35:00;14.40;77.30
1021;DHT22;499;42.648;23.270;2023-08-08T01:37:32;14.40;79.10
1021;DHT22;499;42.648;23.270;2023-08-08T01:40:03;14.30;78.70
1021;DHT22;499;42.648;23.270;2023-08-08T01:42:33;14.40;78.90
1021;DHT22;499;42.648;23.270;2023-08-08T01:45:01;14.30;77.30
1021;DHT22;499;42.648;23.270;2023-08-08T01:47:28;14.20;78.50
1021;DHT22;499;42.648;23.270;2023-08-08T01:49:55;14.20;79.20
1021;DHT22;499;42.648;23.270;2023-08-08T01:52:22;14.30;80.50
1021;DHT22;499;42.648;23.270;2023-08-08T01:54:49;14.30;78.80
1021;DHT22;499;42.648;23.270;2023-08-08T01:57:16;14.40;80.00
1021;DHT22;499;42.648;23.270;2023-08-08T01:59:45;14.50;77.30
1021;DHT22;499;42.648;23.270;2023-08-08T02:02:12;14.40;77.30
1021;DHT22;499;42.648;23.270;2023-08-08T02:04:40;14.40;77.40
1021;DHT22;499;42.648;23.270;2023-08-08T02:07:07;14.30;80.30
1021;DHT22;499;42.648;23.270;2023-08-08T02:09:34;14.30;81.10
1021;DHT22;499;42.648;23.270;2023-08-08T02:12:02;14.20;81.90
1021;DHT22;499;42.648;23.270;2023-08-08T02:14:29;14.30;81.00
1021;DHT22;499;42.648;23.270;2023-08-08T02:16:57;14.30;80.60
1021;DHT22;499;42.648;23.270;2023-08-08T02:19:24;14.30;81.10
1021;DHT22;499;42.648;23.270;2023-08-08T02:21:51;14.30;81.90
1021;DHT22;499;42.648;23.270;2023-08-08T02:24:18;14.20;82.80
1021;DHT22;499;42.648;23.270;2023-08-08T02:26:45;14.10;85.60
1021;DHT22;499;42.648;23.270;2023-08-08T02:29:12;14.20;86.50
1021;DHT22;499;42.648;23.270;2023-08-08T02:31:39;14.10;84.00
1021;DHT22;499;42.648;23.270;2023-08-08T02:34:07;14.10;83.90
1021;DHT22;499;42.648;23.270;2023-08-08T02:36:35;14.10;84.60
1021;DHT22;499;42.648;23.270;2023-08-08T02:39:02;14.20;85.30
1021;DHT22;499;42.648;23.270;2023-08-08T02:41:29;14.20;84.90
1021;DHT22;499;42.648;23.270;2023-08-08T02:43:56;14.10;81.40
1021;DHT22;499;42.648;23.270;2023-08-08T02:46:23;14.10;81.80
1021;DHT22;499;42.648;23.270;2023-08-08T02:48:50;14.10;82.90
1021;DHT22;499;42.648;23.270;2023-08-08T02:51:19;14.20;83.40
1021;DHT22;499;42.648;23.270;2023-08-08T02:53:46;14.10;81.40
1021;DHT22;499;42.648;23.270;2023-08-08T02:56:13;14.20;82.50
1021;DHT22;499;42.648;23.270;2023-08-08T02:58:40;14.20;81.90
1021;DHT22;499;42.648;23.270;2023-08-08T03:01:07;14.20;79.40
1021;DHT22;499;42.648;23.270;2023-08-08T03:03:34;14.20;81.70
1021;DHT22;499;42.648;23.270;2023-08-08T03:06:02;14.10;81.80
1021;DHT22;499;42.648;23.270;2023-08-08T03:08:30;14.00;82.10
1021;DHT22;499;42.648;23.270;2023-08-08T03:10:57;14.10;82.90
1021;DHT22;499;42.648;23.270;2023-08-08T03:13:24;14.10;81.70
1021;DHT22;499;42.648;23.270;2023-08-08T03:15:51;14.10;81.70
1021;DHT22;499;42.648;23.270;2023-08-08T03:18:18;14.10;82.20
1021;DHT22;499;42.648;23.270;2023-08-08T03:20:45;14.00;80.80
1021;DHT22;499;42.648;23.270;2023-08-08T03:23:13;14.10;81.70
1021;DHT22;499;42.648;23.270;2023-08-08T03:25:41;14.10;81.80
1021;DHT22;499;42.648;23.270;2023-08-08T03:28:08;14.10;83.90
1021;DHT22;499;42.648;23.270;2023-08-08T03:30:36;14.10;85.30
1021;DHT22;499;42.648;23.270;2023-08-08T03:33:04;14.00;86.40
1021;DHT22;499;42.648;23.270;2023-08-08T03:35:31;13.80;87.30
1021;DHT22;499;42.648;23.270;2023-08-08T03:37:58;13.90;89.60
1021;DHT22;499;42.648;23.270;2023-08-08T03:40:25;13.90;88.60
1021;DHT22;499;42.648;23.270;2023-08-08T03:42:53;13.90;86.20
1021;DHT22;499;42.648;23.270;2023-08-08T03:45:20;13.90;88.20
1021;DHT22;499;42.648;23.270;2023-08-08T03:47:47;13.80;84.60
1021;DHT22;499;42.648;23.270;2023-08-08T03:50:14;14.00;86.30
1021;DHT22;499;42.648;23.270;2023-08-08T03:52:41;14.00;85.10
1021;DHT22;499;42.648;23.270;2023-08-08T03:55:08;14.30;81.40
1021;DHT22;499;42.648;23.270;2023-08-08T03:57:35;14.30;74.70
1021;DHT22;499;42.648;23.270;2023-08-08T04:00:05;14.20;75.90
1021;DHT22;499;42.648;23.270;2023-08-08T04:02:35;14.30;77.30
1021;DHT22;499;42.648;23.270;2023-08-08T04:05:02;14.40;74.20
1021;DHT22;499;42.648;23.270;2023-08-08T04:07:29;14.40;74.10
1021;DHT22;499;42.648;23.270;2023-08-08T04:09:56;14.40;73.70
1021;DHT22;499;42.648;23.270;2023-08-08T04:12:23;14.50;70.80
1021;DHT22;499;42.648;23.270;2023-08-08T04:14:50;14.50;67.80
1021;DHT22;499;42.648;23.270;2023-08-08T04:17:19;14.50;66.20
1021;DHT22;499;42.648;23.270;2023-08-08T04:19:46;14.40;64.70
1021;DHT22;499;42.648;23.270;2023-08-08T04:22:13;14.50;65.70
1021;DHT22;499;42.648;23.270;2023-08-08T04:24:41;14.60;66.00
1021;DHT22;499;42.648;23.270;2023-08-08T04:27:08;14.70;68.00
1021;DHT22;499;42.648;23.270;2023-08-08T04:29:35;14.70;66.70
1021;DHT22;499;42.648;23.270;2023-08-08T04:32:03;14.80;65.50
1021;DHT22;499;42.648;23.270;2023-08-08T04:34:31;14.80;65.20
1021;DHT22;499;42.648;23.270;2023-08-08T04:36:58;14.70;65.00
1021;DHT22;499;42.648;23.270;2023-08-08T04:39:25;14.80;63.20
1021;DHT22;499;42.648;23.270;2023-08-08T04:41:54;15.00;63.40
1021;DHT22;499;42.648;23.270;2023-08-08T04:44:21;14.90;60.90
1021;DHT22;499;42.648;23.270;2023-08-08T04:46:48;15.10;62.70
1021;DHT22;499;42.648;23.270;2023-08-08T04:49:15;15.20;60.70
1021;DHT22;499;42.648;23.270;2023-08-08T04:51:43;15.20;53.50
1021;DHT22;499;42.648;23.270;2023-08-08T04:54:10;15.30;55.00
1021;DHT22;499;42.648;23.270;2023-08-08T04:56:37;15.30;49.80
1021;DHT22;499;42.648;23.270;2023-08-08T04:59:04;15.40;49.60
1021;DHT22;499;42.648;23.270;2023-08-08T05:01:31;15.40;50.40
1021;DHT22;499;42.648;23.270;2023-08-08T05:03:58;15.30;52.10
1021;DHT22;499;42.648;23.270;2023-08-08T05:06:25;15.10;54.10
1021;DHT22;499;42.648;23.270;2023-08-08T05:08:54;15.10;55.50
1021;DHT22;499;42.648;23.270;2023-08-08T05:11:22;15.20;56.50
1021;DHT22;499;42.648;23.270;2023-08-08T05:13:49;15.30;56.70
1021;DHT22;499;42.648;23.270;2023-08-08T05:16:16;15.20;54.40
1021;DHT22;499;42.648;23.270;2023-08-08T05:18:43;15.20;57.80
1021;DHT22;499;42.648;23.270;2023-08-08T05:21:11;15.20;56.50
1021;DHT22;499;42.648;23.270;2023-08-08T05:23:38;15.30;54.40
1021;DHT22;499;42.648;23.270;2023-08-08T05:26:06;15.30;55.00
1021;DHT22;499;42.648;23.270;2023-08-08T05:28:33;15.40;52.00
1021;DHT22;499;42.648;23.270;2023-08-08T05:31:01;15.50;51.50
1021;DHT22;499;42.648;23.270;2023-08-08T05:33:28;15.70;50.10
1021;DHT22;499;42.648;23.270;2023-08-08T05:35:55;15.60;49.10
1021;DHT22;499;42.648;23.270;2023-08-08T05:38:22;15.80;46.60
1021;DHT22;499;42.648;23.270;2023-08-08T05:40:49;15.90;44.70
1021;DHT22;499;42.648;23.270;2023-08-08T05:43:17;16.10;43.50
1021;DHT22;499;42.648;23.270;2023-08-08T05:45:46;16.30;43.40
1021;DHT22;499;42.648;23.270;2023-08-08T05:48:13;16.20;45.50
1021;DHT22;499;42.648;23.270;2023-08-08T05:50:41;16.00;44.40
1021;DHT22;499;42.648;23.270;2023-08-08T05:53:08;16.00;45.70
1021;DHT22;499;42.648;23.270;2023-08-08T05:55:35;15.60;45.30
1021;DHT22;499;42.648;23.270;2023-08-08T05:58:02;15.70;47.80
1021;DHT22;499;42.648;23.270;2023-08-08T06:00:31;15.70;49.70
1021;DHT22;499;42.648;23.270;2023-08-08T06:02:58;15.60;50.00
1021;DHT22;499;42.648;23.270;2023-08-08T06:05:25;15.50;51.50
1021;DHT22;499;42.648;23.270;2023-08-08T06:07:52;15.30;52.50
1021;DHT22;499;42.648;23.270;2023-08-08T06:10:20;15.30;51.80
1021;DHT22;499;42.648;23.270;2023-08-08T06:12:47;15.40;54.40
1021;DHT22;499;42.648;23.270;2023-08-08T06:15:14;15.40;49.40
1021;DHT22;499;42.648;23.270;2023-08-08T06:17:43;15.50;49.20
1021;DHT22;499;42.648;23.270;2023-08-08T06:20:10;15.30;46.90
1021;DHT22;499;42.648;23.270;2023-08-08T06:22:38;15.40;47.00
1021;DHT22;499;42.648;23.270;2023-08-08T06:25:06;15.50;45.20
1021;DHT22;499;42.648;23.270;2023-08-08T06:27:33;15.60;41.80
1021;DHT22;499;42.648;23.270;2023-08-08T06:30:00;15.80;38.40
1021;DHT22;499;42.648;23.270;2023-08-08T06:32:28;16.00;37.90
1021;DHT22;499;42.648;23.270;2023-08-08T06:34:57;16.10;36.30
1021;DHT22;499;42.648;23.270;2023-08-08T06:37:24;16.20;34.80
1021;DHT22;499;42.648;23.270;2023-08-08T06:39:51;16.40;31.80
1021;DHT22;499;42.648;23.270;2023-08-08T06:42:18;16.40;29.80
1021;DHT22;499;42.648;23.270;2023-08-08T06:44:45;16.60;29.10
1021;DHT22;499;42.648;23.270;2023-08-08T06:47:12;16.80;28.60
1021;DHT22;499;42.648;23.270;2023-08-08T06:49:39;17.10;27.30
1021;DHT22;499;42.648;23.270;2023-08-08T06:52:08;17.40;27.50
1021;DHT22;499;42.648;23.270;2023-08-08T06:54:35;17.40;26.80
1021;DHT22;499;42.648;23.270;2023-08-08T06:57:02;17.50;27.20
1021;DHT22;499;42.648;23.270;2023-08-08T06:59:29;17.10;25.90
1021;DHT22;499;42.648;23.270;2023-08-08T07:01:56;16.80;26.20
1021;DHT22;499;42.648;23.270;2023-08-08T07:04:23;16.60;27.70
1021;DHT22;499;42.648;23.270;2023-08-08T07:06:51;16.60;28.10
1021;DHT22;499;42.648;23.270;2023-08-08T07:09:19;16.50;30.10
1021;DHT22;499;42.648;23.270;2023-08-08T07:11:46;16.30;29.20
1021;DHT22;499;42.648;23.270;2023-08-08T07:14:13;16.20;27.90
1021;DHT22;499;42.648;23.270;2023-08-08T07:16:40;16.20;27.40
1021;DHT22;499;42.648;23.270;2023-08-08T07:19:07;16.20;27.40
1021;DHT22;499;42.648;23.270;2023-08-08T07:21:35;16.30;28.60
1021;DHT22;499;42.648;23.270;2023-08-08T07:24:03;16.40;26.70
1021;DHT22;499;42.648;23.270;2023-08-08T07:26:31;16.50;26.10
1021;DHT22;499;42.648;23.270;2023-08-08T07:28:58;16.40;26.20
1021;DHT22;499;42.648;23.270;2023-08-08T07:31:25;16.50;26.00
1021;DHT22;499;42.648;23.270;2023-08-08T07:33:52;16.60;25.90
1021;DHT22;499;42.648;23.270;2023-08-08T07:36:19;16.60;25.40
1021;DHT22;499;42.648;23.270;2023-08-08T07:38:47;16.60;26.20
1021;DHT22;499;42.648;23.270;2023-08-08T07:41:14;16.60;26.40
1021;DHT22;499;42.648;23.270;2023-08-08T07:43:42;16.90;26.10
1021;DHT22;499;42.648;23.270;2023-08-08T07:46:09;17.00;25.70
1021;DHT22;499;42.648;23.270;2023-08-08T07:48:36;17.00;26.40
1021;DHT22;499;42.648;23.270;2023-08-08T07:51:03;17.10;25.00
1021;DHT22;499;42.648;23.270;2023-08-08T07:53:30;17.10;26.30
1021;DHT22;499;42.648;23.270;2023-08-08T07:55:57;16.90;25.20
1021;DHT22;499;42.648;23.270;2023-08-08T07:58:25;16.90;25.10
1021;DHT22;499;42.648;23.270;2023-08-08T08:00:56;16.90;24.60
1021;DHT22;499;42.648;23.270;2023-08-08T08:03:26;16.80;25.50
1021;DHT22;499;42.648;23.270;2023-08-08T08:05:53;16.80;26.30
1021;DHT22;499;42.648;23.270;2023-08-08T08:08:20;16.90;24.50
1021;DHT22;499;42.648;23.270;2023-08-08T08:10:48;17.00;24.10
1021;DHT22;499;42.648;23.270;2023-08-08T08:13:16;17.20;24.30
1021;DHT22;499;42.648;23.270;2023-08-08T08:15:43;17.30;24.10
1021;DHT22;499;42.648;23.270;2023-08-08T08:18:12;17.40;22.00
1021;DHT22;499;42.648;23.270;2023-08-08T08:20:42;17.40;23.10
1021;DHT22;499;42.648;23.270;2023-08-08T08:23:09;17.60;22.80
1021;DHT22;499;42.648;23.270;2023-08-08T08:25:36;17.60;23.50
1021;DHT22;499;42.648;23.270;2023-08-08T08:28:04;17.20;23.70
1021;DHT22;499;42.648;23.270;2023-08-08T08:30:31;17.00;24.10
1021;DHT22;499;42.648;23.270;2023-08-08T08:32:58;17.00;24.10
1021;DHT22;499;42.648;23.270;2023-08-08T08:35:27;17.20;24.20
1021;DHT22;499;42.648;23.270;2023-08-08T08:37:54;17.40;23.30
1021;DHT22;499;42.648;23.270;2023-08-08T08:40:22;17.60;23.20
1021;DHT22;499;42.648;23.270;2023-08-08T08:42:50;17.90;23.60
1021;DHT22;499;42.648;23.270;2023-08-08T08:45:20;17.90;20.90
1021;DHT22;499;42.648;23.270;2023-08-08T08:47:47;18.10;20.50
1021;DHT22;499;42.648;23.270;2023-08-08T08:50:17;18.00;20.80
1021;DHT22;499;42.648;23.270;2023-08-08T08:52:46;18.20;20.50
1021;DHT22;499;42.648;23.270;2023-08-08T08:55:13;18.40;20.30
1021;DHT22;499;42.648;23.270;2023-08-08T08:57:40;18.50;19.40
1021;DHT22;499;42.648;23.270;2023-08-08T09:00:11;18.70;20.30
1021;DHT22;499;42.648;23.270;2023-08-08T09:02:38;18.70;20.50
1021;DHT22;499;42.648;23.270;2023-08-08T09:05:06;18.50;20.10
1021;DHT22;499;42.648;23.270;2023-08-08T09:07:34;18.40;21.40
1021;DHT22;499;42.648;23.270;2023-08-08T09:10:05;18.30;20.40
1021;DHT22;499;42.648;23.270;2023-08-08T09:12:34;18.50;19.40
1021;DHT22;499;42.648;23.270;2023-08-08T09:15:02;18.80;18.70
1021;DHT22;499;42.648;23.270;2023-08-08T09:17:31;18.80;18.90
1021;DHT22;499;42.648;23.270;2023-08-08T09:19:58;18.70;19.50
1021;DHT22;499;42.648;23.270;2023-08-08T09:22:25;18.60;18.40
1021;DHT22;499;42.648;23.270;2023-08-08T09:24:52;18.50;19.20
1021;DHT22;499;42.648;23.270;2023-08-08T09:27:21;18.50;18.80
1021;DHT22;499;42.648;23.270;2023-08-08T09:29:48;18.80;19.20
1021;DHT22;499;42.648;23.270;2023-08-08T09:32:15;19.00;18.00
1021;DHT22;499;42.648;23.270;2023-08-08T09:34:43;19.10;18.50
1021;DHT22;499;42.648;23.270;2023-08-08T09:37:11;18.90;19.10
1021;DHT22;499;42.648;23.270;2023-08-08T09:39:40;19.00;19.90
1021;DHT22;499;42.648;23.270;2023-08-08T09:42:07;18.70;20.60
1021;DHT22;499;42.648;23.270;2023-08-08T09:44:38;18.70;20.70
1021;DHT22;499;42.648;23.270;2023-08-08T09:47:06;18.60;19.30
1021;DHT22;499;42.648;23.270;2023-08-08T09:49:33;18.40;20.30
1021;DHT22;499;42.648;23.270;2023-08-08T09:52:02;18.20;18.90
1021;DHT22;499;42.648;23.270;2023-08-08T09:54:30;17.80;20.20
1021;DHT22;499;42.648;23.270;2023-08-08T09:56:58;17.90;20.40
1021;DHT22;499;42.648;23.270;2023-08-08T09:59:26;18.10;18.80
1021;DHT22;499;42.648;23.270;2023-08-08T10:01:56;18.20;19.30
1021;DHT22;499;42.648;23.270;2023-08-08T10:04:24;18.40;19.50
1021;DHT22;499;42.648;23.270;2023-08-08T10:06:52;18.40;19.20
1021;DHT22;499;42.648;23.270;2023-08-08T10:09:19;18.60;19.40
1021;DHT22;499;42.648;23.270;2023-08-08T10:11:47;18.40;19.70
1021;DHT22;499;42.648;23.270;2023-08-08T10:14:15;18.30;19.00
1021;DHT22;499;42.648;23.270;2023-08-08T10:16:43;18.30;18.80
1021;DHT22;499;42.648;23.270;2023-08-08T10:19:12;18.40;18.30
1021;DHT22;499;42.648;23.270;2023-08-08T10:21:43;18.50;18.80
1021;DHT22;499;42.648;23.270;2023-08-08T10:24:10;18.60;18.60
1021;DHT22;499;42.648;23.270;2023-08-08T10:26:51;18.70;17.80
1021;DHT22;499;42.648;23.270;2023-08-08T10:29:19;18.60;17.80
1021;DHT22;499;42.648;23.270;2023-08-08T10:31:51;18.50;18.30
1021;DHT22;499;42.648;23.270;2023-08-08T10:34:26;18.50;18.90
1021;DHT22;499;42.648;23.270;2023-08-08T10:36:53;18.50;18.40
1021;DHT22;499;42.648;23.270;2023-08-08T10:39:21;18.80;18.60
1021;DHT22;499;42.648;23.270;2023-08-08T10:41:49;19.00;17.50
1021;DHT22;499;42.648;23.270;2023-08-08T10:44:24;19.10;16.90
1021;DHT22;499;42.648;23.270;2023-08-08T10:46:52;19.30;16.90
1021;DHT22;499;42.648;23.270;2023-08-08T10:49:23;19.20;16.70
1021;DHT22;499;42.648;23.270;2023-08-08T10:51:50;19.50;16.70
1021;DHT22;499;42.648;23.270;2023-08-08T10:54:19;19.40;15.40
1021;DHT22;499;42.648;23.270;2023-08-08T10:56:51;19.50;16.40
1021;DHT22;499;42.648;23.270;2023-08-08T10:59:21;19.50;16.40
1021;DHT22;499;42.648;23.270;2023-08-08T11:01:49;19.30;16.40
1021;DHT22;499;42.648;23.270;2023-08-08T11:04:18;19.50;16.40
1021;DHT22;499;42.648;23.270;2023-08-08T11:06:47;19.60;16.50
1021;DHT22;499;42.648;23.270;2023-08-08T11:09:16;19.70;16.80
1021;DHT22;499;42.648;23.270;2023-08-08T11:11:44;19.50;16.80
1021;DHT22;499;42.648;23.270;2023-08-08T11:14:13;19.40;16.40
1021;DHT22;499;42.648;23.270;2023-08-08T11:16:40;19.30;16.40
1021;DHT22;499;42.648;23.270;2023-08-08T11:19:08;19.30;16.40
1021;DHT22;499;42.648;23.270;2023-08-08T11:21:35;19.40;17.50
1021;DHT22;499;42.648;23.270;2023-08-08T11:24:06;19.50;16.30
1021;DHT22;499;42.648;23.270;2023-08-08T11:26:34;19.50;15.50
1021;DHT22;499;42.648;23.270;2023-08-08T11:29:02;19.60;16.80
1021;DHT22;499;42.648;23.270;2023-08-08T11:31:30;19.80;15.30
1021;DHT22;499;42.648;23.270;2023-08-08T11:33:58;19.50;14.70
1021;DHT22;499;42.648;23.270;2023-08-08T11:36:26;19.50;15.50
1021;DHT22;499;42.648;23.270;2023-08-08T11:38:56;19.70;16.10
1021;DHT22;499;42.648;23.270;2023-08-08T11:41:25;19.70;15.40
1021;DHT22;499;42.648;23.270;2023-08-08T11:43:53;19.40;16.40
1021;DHT22;499;42.648;23.270;2023-08-08T11:46:23;19.40;15.50
1021;DHT22;499;42.648;23.270;2023-08-08T11:48:51;19.50;15.90
1021;DHT22;499;42.648;23.270;2023-08-08T11:51:18;19.60;16.10
1021;DHT22;499;42.648;23.270;2023-08-08T11:53:49;19.70;15.10
1021;DHT22;499;42.648;23.270;2023-08-08T11:56:17;19.60;15.60
1021;DHT22;499;42.648;23.270;2023-08-08T11:58:47;19.50;15.40
1021;DHT22;499;42.648;23.270;2023-08-08T12:01:15;19.70;15.70
1021;DHT22;499;42.648;23.270;2023-08-08T12:03:43;19.80;15.30
1021;DHT22;499;42.648;23.270;2023-08-08T12:06:13;19.70;16.00
1021;DHT22;499;42.648;23.270;2023-08-08T12:08:42;19.70;15.70
1021;DHT22;499;42.648;23.270;2023-08-08T12:11:10;19.70;15.40
1021;DHT22;499;42.648;23.270;2023-08-08T12:13:38;19.70;15.60
1021;DHT22;499;42.648;23.270;2023-08-08T12:16:08;19.80;15.50
1021;DHT22;499;42.648;23.270;2023-08-08T12:18:36;20.00;16.40
1021;DHT22;499;42.648;23.270;2023-08-08T12:21:03;20.10;15.90
1021;DHT22;499;42.648;23.270;2023-08-08T12:23:31;20.00;15.90
1021;DHT22;499;42.648;23.270;2023-08-08T12:25:59;20.00;15.90
1021;DHT22;499;42.648;23.270;2023-08-08T12:28:26;20.10;15.50
1021;DHT22;499;42.648;23.270;2023-08-08T12:30:53;20.10;14.90
1021;DHT22;499;42.648;23.270;2023-08-08T12:33:21;20.20;14.20
1021;DHT22;499;42.648;23.270;2023-08-08T12:35:49;20.20;14.20
1021;DHT22;499;42.648;23.270;2023-08-08T12:38:16;20.50;15.00
1021;DHT22;499;42.648;23.270;2023-08-08T12:40:43;20.70;14.60
1021;DHT22;499;42.648;23.270;2023-08-08T12:43:10;20.80;15.30
1021;DHT22;499;42.648;23.270;2023-08-08T12:45:39;20.90;13.80
1021;DHT22;499;42.648;23.270;2023-08-08T12:48:06;20.70;14.10
1021;DHT22;499;42.648;23.270;2023-08-08T12:50:35;20.70;14.10
1021;DHT22;499;42.648;23.270;2023-08-08T12:53:03;20.80;15.00
1021;DHT22;499;42.648;23.270;2023-08-08T12:55:30;20.80;13.00
1021;DHT22;499;42.648;23.270;2023-08-08T12:57:57;20.70;13.90
1021;DHT22;499;42.648;23.270;2023-08-08T13:00:25;20.80;13.70
1021;DHT22;499;42.648;23.270;2023-08-08T13:02:52;20.70;14.40
1021;DHT22;499;42.648;23.270;2023-08-08T13:05:19;20.70;13.80
1021;DHT22;499;42.648;23.270;2023-08-08T13:07:47;20.90;13.70
1021;DHT22;499;42.648;23.270;2023-08-08T13:10:14;20.90;13.00
1021;DHT22;499;42.648;23.270;2023-08-08T13:12:42;20.80;13.50
1021;DHT22;499;42.648;23.270;2023-08-08T13:15:09;20.70;14.40
1021;DHT22;499;42.648;23.270;2023-08-08T13:17:37;20.70;14.20
1021;DHT22;499;42.648;23.270;2023-08-08T13:20:05;20.90;14.60
1021;DHT22;499;42.648;23.270;2023-08-08T13:22:33;21.10;12.50
1021;DHT22;499;42.648;23.270;2023-08-08T13:25:01;21.10;12.10
1021;DHT22;499;42.648;23.270;2023-08-08T13:27:29;20.70;12.30
1021;DHT22;499;42.648;23.270;2023-08-08T13:29:56;20.80;12.60
1021;DHT22;499;42.648;23.270;2023-08-08T13:32:23;21.00;12.50
1021;DHT22;499;42.648;23.270;2023-08-08T13:34:50;20.80;12.60
1021;DHT22;499;42.648;23.270;2023-08-08T13:37:17;20.80;12.50
1021;DHT22;499;42.648;23.270;2023-08-08T13:39:44;20.90;13.40
1021;DHT22;499;42.648;23.270;2023-08-08T13:42:12;20.70;13.20
1021;DHT22;499;42.648;23.270;2023-08-08T13:44:40;20.90;13.60
1021;DHT22;499;42.648;23.270;2023-08-08T13:47:07;21.00;12.90
1021;DHT22;499;42.648;23.270;2023-08-08T13:49:34;21.30;13.10
1021;DHT22;499;42.648;23.270;2023-08-08T13:52:01;21.50;13.50
1021;DHT22;499;42.648;23.270;2023-08-08T13:54:29;21.60;12.30
1021;DHT22;499;42.648;23.270;2023-08-08T13:56:56;21.50;12.30
1021;DHT22;499;42.648;23.270;2023-08-08T13:59:24;21.60;12.70
1021;DHT22;499;42.648;23.270;2023-08-08T14:01:52;21.30;12.70
1021;DHT22;499;42.648;23.270;2023-08-08T14:04:19;21.20;12.80
1021;DHT22;499;42.648;23.270;2023-08-08T14:06:46;21.30;12.90
1021;DHT22;499;42.648;23.270;2023-08-08T14:09:13;21.30;13.70
1021;DHT22;499;42.648;23.270;2023-08-08T14:11:40;21.40;12.10
1021;DHT22;499;42.648;23.270;2023-08-08T14:14:07;21.40;11.90
1021;DHT22;499;42.648;23.270;2023-08-08T14:16:35;21.40;12.60
1021;DHT22;499;42.648;23.270;2023-08-08T14:19:03;21.40;12.10
1021;DHT22;499;42.648;23.270;2023-08-08T14:21:30;21.30;12.80
1021;DHT22;499;42.648;23.270;2023-08-08T14:23:57;21.30;11.90
1021;DHT22;499;42.648;23.270;2023-08-08T14:26:24;21.20;12.60
1021;DHT22;499;42.648;23.270;2023-08-08T14:28:51;21.10;13.40
1021;DHT22;499;42.648;23.270;2023-08-08T14:31:18;20.60;13.90
1021;DHT22;499;42.648;23.270;2023-08-08T14:33:47;20.50;13.40
1021;DHT22;499;42.648;23.270;2023-08-08T14:36:14;20.40;13.90
1021;DHT22;499;42.648;23.270;2023-08-08T14:38:41;20.50;14.30
1021;DHT22;499;42.648;23.270;2023-08-08T14:41:08;20.60;13.10
1021;DHT22;499;42.648;23.270;2023-08-08T14:43:36;20.60;13.40
1021;DHT22;499;42.648;23.270;2023-08-08T14:46:03;20.70;12.80
1021;DHT22;499;42.648;23.270;2023-08-08T14:48:30;20.70;12.80
1021;DHT22;499;42.648;23.270;2023-08-08T14:51:01;20.80;13.30
1021;DHT22;499;42.648;23.270;2023-08-08T14:53:29;20.80;13.20
1021;DHT22;499;42.648;23.270;2023-08-08T14:55:56;21.00;13.90
1021;DHT22;499;42.648;23.270;2023-08-08T14:58:23;21.10;13.70
1021;DHT22;499;42.648;23.270;2023-08-08T15:00:50;21.10;13.00
1021;DHT22;499;42.648;23.270;2023-08-08T15:03:17;21.00;12.80
1021;DHT22;499;42.648;23.270;2023-08-08T15:05:45;20.90;13.20
1021;DHT22;499;42.648;23.270;2023-08-08T15:08:15;21.10;13.30
1021;DHT22;499;42.648;23.270;2023-08-08T15:10:44;21.10;13.60
1021;DHT22;499;42.648;23.270;2023-08-08T15:13:11;21.10;13.40
1021;DHT22;499;42.648;23.270;2023-08-08T15:15:38;21.30;12.50
1021;DHT22;499;42.648;23.270;2023-08-08T15:18:05;21.30;12.20
1021;DHT22;499;42.648;23.270;2023-08-08T15:20:32;21.30;12.90
1021;DHT22;499;42.648;23.270;2023-08-08T15:22:59;21.70;12.00
1021;DHT22;499;42.648;23.270;2023-08-08T15:25:28;22.20;11.50
1021;DHT22;499;42.648;23.270;2023-08-08T15:27:55;22.60;11.20
1021;DHT22;499;42.648;23.270;2023-08-08T15:30:22;22.80;10.80
1021;DHT22;499;42.648;23.270;2023-08-08T15:32:49;22.90;10.40
1021;DHT22;499;42.648;23.270;2023-08-08T15:35:16;23.40;10.10
1021;DHT22;499;42.648;23.270;2023-08-08T15:37:43;23.70;9.80
1021;DHT22;499;42.648;23.270;2023-08-08T15:40:11;23.40;8.70
1021;DHT22;499;42.648;23.270;2023-08-08T15:42:39;23.10;9.30
1021;DHT22;499;42.648;23.270;2023-08-08T15:45:09;23.00;9.20
1021;DHT22;499;42.648;23.270;2023-08-08T15:47:37;23.20;9.40
1021;DHT22;499;42.648;23.270;2023-08-08T15:50:05;23.30;9.20
1021;DHT22;499;42.648;23.270;2023-08-08T15:52:32;23.50;9.50
1021;DHT22;499;42.648;23.270;2023-08-08T15:54:59;23.10;9.70
1021;DHT22;499;42.648;23.270;2023-08-08T15:57:26;22.90;9.40
1021;DHT22;499;42.648;23.270;2023-08-08T15:59:55;22.60;9.60
1021;DHT22;499;42.648;23.270;2023-08-08T16:02:22;22.50;10.70
1021;DHT22;499;42.648;23.270;2023-08-08T16:04:49;22.10;11.40